sensor_id;sensor_type;location;lat;lon;timestamp;P1;durP1;ratioP1;P2;durP2;ratioP2
70102;SDS011;57470;50.034;15.256;2022-09-28T00:00:32;5.90;;;0.87;;
70102;SDS011;57470;50.034;15.256;2022-09-28T00:02:58;4.83;;;0.50;;
70102;SDS011;57470;50.034;15.256;2022-09-28T00:05:24;3.00;;;0.93;;
70102;SDS011;57470;50.034;15.256;2022-09-28T00:07:52;2.88;;;1.08;;
70102;SDS011;57470;50.034;15.256;2022-09-28T00:10:18;2.57;;;0.40;;
70102;SDS011;57470;50.034;15.256;2022-09-28T00:12:51;2.30;;;0.50;;
70102;SDS011;57470;50.034;15.256;2022-09-28T00:15:19;2.53;;;0.70;;
70102;SDS011;57470;50.034;15.256;2022-09-28T00:17:45;3.20;;;0.68;;
70102;SDS011;57470;50.034;15.256;2022-09-28T00:20:12;2.20;;;0.47;;
70102;SDS011;57470;50.034;15.256;2022-09-28T00:22:38;2.60;;;0.67;;
70102;SDS011;57470;50.034;15.256;2022-09-28T00:25:04;3.08;;;0.85;;
70102;SDS011;57470;50.034;15.256;2022-09-28T00:27:31;3.50;;;1.60;;
70102;SDS011;57470;50.034;15.256;2022-09-28T00:29:56;4.87;;;1.00;;
70102;SDS011;57470;50.034;15.256;2022-09-28T00:32:22;2.40;;;0.73;;
70102;SDS011;57470;50.034;15.256;2022-09-28T00:34:48;2.47;;;0.55;;
70102;SDS011;57470;50.034;15.256;2022-09-28T00:37:15;2.00;;;0.50;;
70102;SDS011;57470;50.034;15.256;2022-09-28T00:39:42;2.05;;;0.50;;
70102;SDS011;57470;50.034;15.256;2022-09-28T00:42:26;2.42;;;0.57;;
70102;SDS011;57470;50.034;15.256;2022-09-28T00:44:53;2.58;;;0.60;;
70102;SDS011;57470;50.034;15.256;2022-09-28T00:50:17;2.53;;;0.57;;
70102;SDS011;57470;50.034;15.256;2022-09-28T00:52:58;2.75;;;0.73;;
70102;SDS011;57470;50.034;15.256;2022-09-28T00:55:38;2.47;;;0.77;;
70102;SDS011;57470;50.034;15.256;2022-09-28T00:58:10;2.50;;;0.68;;
70102;SDS011;57470;50.034;15.256;2022-09-28T01:00:40;2.27;;;0.60;;
70102;SDS011;57470;50.034;15.256;2022-09-28T01:03:06;3.33;;;1.00;;
70102;SDS011;57470;50.034;15.256;2022-09-28T01:05:33;6.93;;;0.90;;
70102;SDS011;57470;50.034;15.256;2022-09-28T01:07:59;2.05;;;0.50;;
70102;SDS011;57470;50.034;15.256;2022-09-28T01:10:26;2.22;;;0.60;;
70102;SDS011;57470;50.034;15.256;2022-09-28T01:12:53;2.50;;;0.73;;
70102;SDS011;57470;50.034;15.256;2022-09-28T01:15:19;2.30;;;0.40;;
70102;SDS011;57470;50.034;15.256;2022-09-28T01:20:31;2.42;;;0.55;;
70102;SDS011;57470;50.034;15.256;2022-09-28T01:28:48;2.25;;;0.60;;
70102;SDS011;57470;50.034;15.256;2022-09-28T01:31:18;3.35;;;1.10;;
70102;SDS011;57470;50.034;15.256;2022-09-28T01:33:54;2.30;;;0.68;;
70102;SDS011;57470;50.034;15.256;2022-09-28T01:36:25;1.70;;;0.40;;
70102;SDS011;57470;50.034;15.256;2022-09-28T01:38:56;2.33;;;0.67;;
70102;SDS011;57470;50.034;15.256;2022-09-28T01:41:27;2.47;;;0.77;;
70102;SDS011;57470;50.034;15.256;2022-09-28T01:43:56;2.05;;;0.30;;
70102;SDS011;57470;50.034;15.256;2022-09-28T01:46:37;1.73;;;0.35;;
70102;SDS011;57470;50.034;15.256;2022-09-28T01:49:12;2.17;;;0.57;;
70102;SDS011;57470;50.034;15.256;2022-09-28T01:51:52;2.40;;;0.50;;
70102;SDS011;57470;50.034;15.256;2022-09-28T01:54:29;1.67;;;0.30;;
70102;SDS011;57470;50.034;15.256;2022-09-28T01:57:05;2.65;;;0.50;;
70102;SDS011;57470;50.034;15.256;2022-09-28T01:59:39;3.00;;;0.77;;
70102;SDS011;57470;50.034;15.256;2022-09-28T02:02:18;3.22;;;0.95;;
70102;SDS011;57470;50.034;15.256;2022-09-28T02:04:58;2.40;;;0.40;;
70102;SDS011;57470;50.034;15.256;2022-09-28T02:08:05;2.30;;;0.40;;
70102;SDS011;57470;50.034;15.256;2022-09-28T02:10:46;1.83;;;0.30;;
70102;SDS011;57470;50.034;15.256;2022-09-28T02:13:21;3.35;;;0.85;;
70102;SDS011;57470;50.034;15.256;2022-09-28T02:16:08;2.83;;;0.75;;
70102;SDS011;57470;50.034;15.256;2022-09-28T02:18:39;2.00;;;0.50;;
70102;SDS011;57470;50.034;15.256;2022-09-28T02:21:10;2.92;;;0.90;;
70102;SDS011;57470;50.034;15.256;2022-09-28T02:23:40;2.17;;;0.50;;
70102;SDS011;57470;50.034;15.256;2022-09-28T02:26:15;2.97;;;0.98;;
70102;SDS011;57470;50.034;15.256;2022-09-28T02:28:44;2.72;;;0.80;;
70102;SDS011;57470;50.034;15.256;2022-09-28T02:31:10;2.90;;;0.80;;
70102;SDS011;57470;50.034;15.256;2022-09-28T02:33:36;4.20;;;1.50;;
70102;SDS011;57470;50.034;15.256;2022-09-28T02:36:04;2.58;;;0.63;;
70102;SDS011;57470;50.034;15.256;2022-09-28T02:38:30;2.35;;;0.63;;
70102;SDS011;57470;50.034;15.256;2022-09-28T02:46:31;7.40;;;2.42;;
70102;SDS011;57470;50.034;15.256;2022-09-28T02:57:00;6.82;;;0.90;;
70102;SDS011;57470;50.034;15.256;2022-09-28T03:07:37;2.60;;;0.80;;
70102;SDS011;57470;50.034;15.256;2022-09-28T03:10:12;3.70;;;0.80;;
70102;SDS011;57470;50.034;15.256;2022-09-28T03:12:48;2.55;;;0.50;;
70102;SDS011;57470;50.034;15.256;2022-09-28T03:15:22;3.50;;;1.13;;
70102;SDS011;57470;50.034;15.256;2022-09-28T03:17:48;1.75;;;0.30;;
70102;SDS011;57470;50.034;15.256;2022-09-28T03:20:13;2.73;;;0.83;;
70102;SDS011;57470;50.034;15.256;2022-09-28T03:22:39;3.50;;;1.00;;
70102;SDS011;57470;50.034;15.256;2022-09-28T03:25:05;2.37;;;0.57;;
70102;SDS011;57470;50.034;15.256;2022-09-28T03:27:31;2.28;;;0.50;;
70102;SDS011;57470;50.034;15.256;2022-09-28T03:29:57;2.60;;;0.53;;
70102;SDS011;57470;50.034;15.256;2022-09-28T03:32:22;3.57;;;0.60;;
70102;SDS011;57470;50.034;15.256;2022-09-28T03:34:48;3.93;;;0.93;;
70102;SDS011;57470;50.034;15.256;2022-09-28T03:37:13;5.35;;;0.68;;
70102;SDS011;57470;50.034;15.256;2022-09-28T03:39:38;3.60;;;0.87;;
70102;SDS011;57470;50.034;15.256;2022-09-28T03:42:04;4.83;;;1.40;;
70102;SDS011;57470;50.034;15.256;2022-09-28T03:44:29;5.40;;;1.97;;
70102;SDS011;57470;50.034;15.256;2022-09-28T03:46:55;7.23;;;1.93;;
70102;SDS011;57470;50.034;15.256;2022-09-28T03:49:20;5.35;;;1.83;;
70102;SDS011;57470;50.034;15.256;2022-09-28T03:51:46;3.80;;;1.10;;
70102;SDS011;57470;50.034;15.256;2022-09-28T03:54:12;3.33;;;1.00;;
70102;SDS011;57470;50.034;15.256;2022-09-28T03:56:38;3.17;;;0.90;;
70102;SDS011;57470;50.034;15.256;2022-09-28T03:59:04;2.90;;;0.70;;
70102;SDS011;57470;50.034;15.256;2022-09-28T04:01:30;3.57;;;1.00;;
70102;SDS011;57470;50.034;15.256;2022-09-28T04:03:55;2.40;;;0.50;;
70102;SDS011;57470;50.034;15.256;2022-09-28T04:06:21;2.60;;;0.80;;
70102;SDS011;57470;50.034;15.256;2022-09-28T04:08:48;2.95;;;0.80;;
70102;SDS011;57470;50.034;15.256;2022-09-28T04:11:13;1.70;;;0.30;;
70102;SDS011;57470;50.034;15.256;2022-09-28T04:13:38;2.13;;;0.60;;
70102;SDS011;57470;50.034;15.256;2022-09-28T04:16:04;2.83;;;0.60;;
70102;SDS011;57470;50.034;15.256;2022-09-28T04:18:30;2.03;;;0.50;;
70102;SDS011;57470;50.034;15.256;2022-09-28T04:21:06;2.77;;;0.70;;
70102;SDS011;57470;50.034;15.256;2022-09-28T04:23:35;1.50;;;0.43;;
70102;SDS011;57470;50.034;15.256;2022-09-28T04:26:02;3.08;;;0.95;;
70102;SDS011;57470;50.034;15.256;2022-09-28T04:28:29;2.38;;;0.65;;
70102;SDS011;57470;50.034;15.256;2022-09-28T04:31:16;3.47;;;0.57;;
70102;SDS011;57470;50.034;15.256;2022-09-28T04:33:44;1.97;;;0.40;;
70102;SDS011;57470;50.034;15.256;2022-09-28T04:36:10;2.10;;;0.52;;
70102;SDS011;57470;50.034;15.256;2022-09-28T04:38:35;2.93;;;1.00;;
70102;SDS011;57470;50.034;15.256;2022-09-28T04:41:01;3.03;;;0.70;;
70102;SDS011;57470;50.034;15.256;2022-09-28T04:43:27;3.00;;;0.70;;
70102;SDS011;57470;50.034;15.256;2022-09-28T04:45:59;2.70;;;0.80;;
70102;SDS011;57470;50.034;15.256;2022-09-28T04:48:26;2.88;;;0.47;;
70102;SDS011;57470;50.034;15.256;2022-09-28T04:50:55;2.88;;;0.70;;
70102;SDS011;57470;50.034;15.256;2022-09-28T04:53:22;2.43;;;0.60;;
70102;SDS011;57470;50.034;15.256;2022-09-28T04:55:55;3.65;;;1.08;;
70102;SDS011;57470;50.034;15.256;2022-09-28T04:58:22;4.35;;;0.93;;
70102;SDS011;57470;50.034;15.256;2022-09-28T05:00:48;2.97;;;0.90;;
70102;SDS011;57470;50.034;15.256;2022-09-28T05:03:15;6.03;;;2.35;;
70102;SDS011;57470;50.034;15.256;2022-09-28T05:05:44;5.88;;;1.67;;
70102;SDS011;57470;50.034;15.256;2022-09-28T05:08:10;5.50;;;1.15;;
70102;SDS011;57470;50.034;15.256;2022-09-28T05:10:35;2.93;;;0.87;;
70102;SDS011;57470;50.034;15.256;2022-09-28T05:13:04;4.18;;;0.93;;
70102;SDS011;57470;50.034;15.256;2022-09-28T05:15:30;2.33;;;0.50;;
70102;SDS011;57470;50.034;15.256;2022-09-28T05:17:55;2.67;;;0.77;;
70102;SDS011;57470;50.034;15.256;2022-09-28T05:20:21;2.90;;;0.80;;
70102;SDS011;57470;50.034;15.256;2022-09-28T05:22:46;2.53;;;0.57;;
70102;SDS011;57470;50.034;15.256;2022-09-28T05:25:11;2.90;;;0.47;;
70102;SDS011;57470;50.034;15.256;2022-09-28T05:27:37;2.57;;;0.63;;
70102;SDS011;57470;50.034;15.256;2022-09-28T05:30:02;2.63;;;0.70;;
70102;SDS011;57470;50.034;15.256;2022-09-28T05:32:28;2.45;;;0.75;;
70102;SDS011;57470;50.034;15.256;2022-09-28T05:34:53;2.40;;;0.43;;
70102;SDS011;57470;50.034;15.256;2022-09-28T05:37:19;2.33;;;0.80;;
70102;SDS011;57470;50.034;15.256;2022-09-28T05:39:45;2.00;;;0.40;;
70102;SDS011;57470;50.034;15.256;2022-09-28T05:42:10;2.27;;;0.50;;
70102;SDS011;57470;50.034;15.256;2022-09-28T05:44:35;3.83;;;0.67;;
70102;SDS011;57470;50.034;15.256;2022-09-28T05:47:02;2.25;;;0.52;;
70102;SDS011;57470;50.034;15.256;2022-09-28T05:49:27;2.15;;;0.50;;
70102;SDS011;57470;50.034;15.256;2022-09-28T05:51:55;3.03;;;0.93;;
70102;SDS011;57470;50.034;15.256;2022-09-28T05:54:21;3.10;;;0.63;;
70102;SDS011;57470;50.034;15.256;2022-09-28T05:56:46;2.50;;;0.67;;
70102;SDS011;57470;50.034;15.256;2022-09-28T05:59:11;2.40;;;0.60;;
70102;SDS011;57470;50.034;15.256;2022-09-28T06:01:37;3.37;;;1.10;;
70102;SDS011;57470;50.034;15.256;2022-09-28T06:04:03;7.80;;;2.00;;
70102;SDS011;57470;50.034;15.256;2022-09-28T06:06:28;4.43;;;1.47;;
70102;SDS011;57470;50.034;15.256;2022-09-28T06:08:53;2.67;;;0.70;;
70102;SDS011;57470;50.034;15.256;2022-09-28T06:11:19;1.80;;;0.30;;
70102;SDS011;57470;50.034;15.256;2022-09-28T06:13:44;3.97;;;1.20;;
70102;SDS011;57470;50.034;15.256;2022-09-28T06:16:13;2.17;;;0.43;;
70102;SDS011;57470;50.034;15.256;2022-09-28T06:18:39;3.50;;;0.93;;
70102;SDS011;57470;50.034;15.256;2022-09-28T06:21:05;3.78;;;0.63;;
70102;SDS011;57470;50.034;15.256;2022-09-28T06:23:34;3.88;;;1.05;;
70102;SDS011;57470;50.034;15.256;2022-09-28T06:26:00;2.13;;;0.37;;
70102;SDS011;57470;50.034;15.256;2022-09-28T06:28:25;2.93;;;0.60;;
70102;SDS011;57470;50.034;15.256;2022-09-28T06:30:50;5.87;;;0.90;;
70102;SDS011;57470;50.034;15.256;2022-09-28T06:33:18;2.25;;;0.43;;
70102;SDS011;57470;50.034;15.256;2022-09-28T06:35:44;2.97;;;0.90;;
70102;SDS011;57470;50.034;15.256;2022-09-28T06:38:10;2.77;;;0.80;;
70102;SDS011;57470;50.034;15.256;2022-09-28T06:40:35;2.60;;;0.82;;
70102;SDS011;57470;50.034;15.256;2022-09-28T06:43:03;2.77;;;0.77;;
70102;SDS011;57470;50.034;15.256;2022-09-28T06:45:36;2.70;;;0.75;;
70102;SDS011;57470;50.034;15.256;2022-09-28T06:48:03;3.37;;;0.60;;
70102;SDS011;57470;50.034;15.256;2022-09-28T06:50:30;3.03;;;1.03;;
70102;SDS011;57470;50.034;15.256;2022-09-28T06:53:07;2.84;;;0.79;;
70102;SDS011;57470;50.034;15.256;2022-09-28T06:55:41;2.97;;;0.63;;
70102;SDS011;57470;50.034;15.256;2022-09-28T06:58:10;6.57;;;0.90;;
70102;SDS011;57470;50.034;15.256;2022-09-28T07:00:37;3.45;;;0.95;;
70102;SDS011;57470;50.034;15.256;2022-09-28T07:03:04;3.60;;;0.53;;
70102;SDS011;57470;50.034;15.256;2022-09-28T07:05:49;3.05;;;0.75;;
70102;SDS011;57470;50.034;15.256;2022-09-28T07:08:18;2.50;;;0.68;;
70102;SDS011;57470;50.034;15.256;2022-09-28T07:10:46;4.00;;;1.65;;
70102;SDS011;57470;50.034;15.256;2022-09-28T07:13:13;7.18;;;2.22;;
70102;SDS011;57470;50.034;15.256;2022-09-28T07:15:39;4.57;;;1.17;;
70102;SDS011;57470;50.034;15.256;2022-09-28T07:18:07;6.97;;;1.23;;
70102;SDS011;57470;50.034;15.256;2022-09-28T07:20:34;8.32;;;2.42;;
70102;SDS011;57470;50.034;15.256;2022-09-28T07:23:01;4.70;;;1.23;;
70102;SDS011;57470;50.034;15.256;2022-09-28T07:25:29;6.07;;;1.63;;
70102;SDS011;57470;50.034;15.256;2022-09-28T07:27:56;2.60;;;0.80;;
70102;SDS011;57470;50.034;15.256;2022-09-28T07:30:26;12.25;;;3.38;;
70102;SDS011;57470;50.034;15.256;2022-09-28T07:32:56;9.07;;;2.17;;
70102;SDS011;57470;50.034;15.256;2022-09-28T07:35:21;3.87;;;1.07;;
70102;SDS011;57470;50.034;15.256;2022-09-28T07:37:46;8.93;;;3.40;;
70102;SDS011;57470;50.034;15.256;2022-09-28T07:40:12;10.80;;;3.80;;
70102;SDS011;57470;50.034;15.256;2022-09-28T07:43:02;17.10;;;3.65;;
70102;SDS011;57470;50.034;15.256;2022-09-28T07:45:28;11.98;;;3.60;;
70102;SDS011;57470;50.034;15.256;2022-09-28T07:47:54;10.57;;;1.93;;
70102;SDS011;57470;50.034;15.256;2022-09-28T07:50:20;9.75;;;3.90;;
70102;SDS011;57470;50.034;15.256;2022-09-28T07:52:45;8.00;;;2.90;;
70102;SDS011;57470;50.034;15.256;2022-09-28T07:55:11;2.30;;;0.73;;
70102;SDS011;57470;50.034;15.256;2022-09-28T07:57:37;31.13;;;8.40;;
70102;SDS011;57470;50.034;15.256;2022-09-28T08:00:04;5.53;;;1.67;;
70102;SDS011;57470;50.034;15.256;2022-09-28T08:02:32;11.98;;;2.75;;
70102;SDS011;57470;50.034;15.256;2022-09-28T08:04:58;10.23;;;3.25;;
70102;SDS011;57470;50.034;15.256;2022-09-28T08:07:24;3.20;;;1.20;;
70102;SDS011;57470;50.034;15.256;2022-09-28T08:09:49;6.35;;;1.00;;
70102;SDS011;57470;50.034;15.256;2022-09-28T08:12:15;6.23;;;1.40;;
70102;SDS011;57470;50.034;15.256;2022-09-28T08:14:43;6.32;;;1.58;;
70102;SDS011;57470;50.034;15.256;2022-09-28T08:17:09;9.32;;;3.88;;
70102;SDS011;57470;50.034;15.256;2022-09-28T08:19:35;5.33;;;1.63;;
70102;SDS011;57470;50.034;15.256;2022-09-28T08:22:19;3.22;;;1.00;;
70102;SDS011;57470;50.034;15.256;2022-09-28T08:24:44;11.30;;;2.23;;
70102;SDS011;57470;50.034;15.256;2022-09-28T08:27:11;21.45;;;6.40;;
70102;SDS011;57470;50.034;15.256;2022-09-28T08:29:37;11.75;;;3.40;;
70102;SDS011;57470;50.034;15.256;2022-09-28T08:32:03;15.93;;;4.77;;
70102;SDS011;57470;50.034;15.256;2022-09-28T08:34:31;5.85;;;1.80;;
70102;SDS011;57470;50.034;15.256;2022-09-28T08:36:57;4.00;;;1.23;;
70102;SDS011;57470;50.034;15.256;2022-09-28T08:39:23;22.75;;;6.38;;
70102;SDS011;57470;50.034;15.256;2022-09-28T08:44:52;6.00;;;1.60;;
70102;SDS011;57470;50.034;15.256;2022-09-28T08:48:23;7.65;;;1.38;;
70102;SDS011;57470;50.034;15.256;2022-09-28T08:50:58;5.30;;;1.77;;
70102;SDS011;57470;50.034;15.256;2022-09-28T08:56:05;4.15;;;1.45;;
70102;SDS011;57470;50.034;15.256;2022-09-28T08:58:36;2.92;;;0.90;;
70102;SDS011;57470;50.034;15.256;2022-09-28T09:01:07;3.50;;;1.35;;
70102;SDS011;57470;50.034;15.256;2022-09-28T09:03:40;3.90;;;0.77;;
70102;SDS011;57470;50.034;15.256;2022-09-28T09:06:32;3.75;;;1.02;;
70102;SDS011;57470;50.034;15.256;2022-09-28T09:09:13;2.75;;;0.73;;
70102;SDS011;57470;50.034;15.256;2022-09-28T09:25:25;6.53;;;1.67;;
70102;SDS011;57470;50.034;15.256;2022-09-28T09:33:47;4.72;;;1.40;;
70102;SDS011;57470;50.034;15.256;2022-09-28T09:42:22;2.70;;;0.70;;
70102;SDS011;57470;50.034;15.256;2022-09-28T09:48:12;4.50;;;1.27;;
70102;SDS011;57470;50.034;15.256;2022-09-28T09:50:47;4.60;;;0.70;;
70102;SDS011;57470;50.034;15.256;2022-09-28T09:58:55;5.23;;;1.20;;
70102;SDS011;57470;50.034;15.256;2022-09-28T10:01:32;5.35;;;1.67;;
70102;SDS011;57470;50.034;15.256;2022-09-28T10:04:04;5.35;;;1.13;;
70102;SDS011;57470;50.034;15.256;2022-09-28T10:06:38;3.90;;;1.40;;
70102;SDS011;57470;50.034;15.256;2022-09-28T10:09:13;13.68;;;5.63;;
70102;SDS011;57470;50.034;15.256;2022-09-28T10:11:44;42.40;;;12.67;;
70102;SDS011;57470;50.034;15.256;2022-09-28T10:14:17;33.05;;;10.27;;
70102;SDS011;57470;50.034;15.256;2022-09-28T10:16:48;50.83;;;11.00;;
70102;SDS011;57470;50.034;15.256;2022-09-28T10:19:15;10.25;;;2.88;;
70102;SDS011;57470;50.034;15.256;2022-09-28T10:21:44;17.88;;;5.13;;
70102;SDS011;57470;50.034;15.256;2022-09-28T10:24:14;5.97;;;2.23;;
70102;SDS011;57470;50.034;15.256;2022-09-28T10:26:44;8.10;;;1.27;;
70102;SDS011;57470;50.034;15.256;2022-09-28T10:29:24;12.30;;;3.92;;
70102;SDS011;57470;50.034;15.256;2022-09-28T10:31:51;7.90;;;3.15;;
70102;SDS011;57470;50.034;15.256;2022-09-28T10:34:25;7.80;;;2.50;;
70102;SDS011;57470;50.034;15.256;2022-09-28T10:36:52;5.07;;;1.70;;
70102;SDS011;57470;50.034;15.256;2022-09-28T10:41:58;7.55;;;1.70;;
70102;SDS011;57470;50.034;15.256;2022-09-28T10:44:28;9.25;;;2.80;;
70102;SDS011;57470;50.034;15.256;2022-09-28T10:47:00;8.43;;;2.20;;
70102;SDS011;57470;50.034;15.256;2022-09-28T10:49:30;5.60;;;1.37;;
70102;SDS011;57470;50.034;15.256;2022-09-28T10:57:44;4.93;;;1.30;;
70102;SDS011;57470;50.034;15.256;2022-09-28T11:00:28;6.77;;;1.40;;
70102;SDS011;57470;50.034;15.256;2022-09-28T11:02:59;7.10;;;1.73;;
70102;SDS011;57470;50.034;15.256;2022-09-28T11:05:25;3.45;;;1.20;;
70102;SDS011;57470;50.034;15.256;2022-09-28T11:07:51;4.45;;;2.22;;
70102;SDS011;57470;50.034;15.256;2022-09-28T11:10:29;4.37;;;1.73;;
70102;SDS011;57470;50.034;15.256;2022-09-28T11:12:56;9.45;;;3.30;;
70102;SDS011;57470;50.034;15.256;2022-09-28T11:15:27;7.32;;;1.95;;
70102;SDS011;57470;50.034;15.256;2022-09-28T11:17:55;8.00;;;1.50;;
70102;SDS011;57470;50.034;15.256;2022-09-28T11:22:45;3.97;;;1.40;;
70102;SDS011;57470;50.034;15.256;2022-09-28T11:27:40;4.20;;;1.33;;
70102;SDS011;57470;50.034;15.256;2022-09-28T11:30:20;6.78;;;2.53;;
70102;SDS011;57470;50.034;15.256;2022-09-28T11:32:52;9.75;;;2.85;;
70102;SDS011;57470;50.034;15.256;2022-09-28T11:35:21;4.30;;;1.47;;
70102;SDS011;57470;50.034;15.256;2022-09-28T11:38:02;4.95;;;1.20;;
70102;SDS011;57470;50.034;15.256;2022-09-28T11:46:06;11.65;;;3.78;;
70102;SDS011;57470;50.034;15.256;2022-09-28T11:48:40;8.90;;;2.60;;
70102;SDS011;57470;50.034;15.256;2022-09-28T11:51:19;10.02;;;3.35;;
70102;SDS011;57470;50.034;15.256;2022-09-28T11:53:54;6.07;;;1.88;;
70102;SDS011;57470;50.034;15.256;2022-09-28T11:56:39;9.55;;;2.35;;
70102;SDS011;57470;50.034;15.256;2022-09-28T11:59:18;10.23;;;2.25;;
70102;SDS011;57470;50.034;15.256;2022-09-28T12:01:59;7.33;;;2.33;;
70102;SDS011;57470;50.034;15.256;2022-09-28T12:04:53;9.63;;;2.15;;
70102;SDS011;57470;50.034;15.256;2022-09-28T12:07:29;5.18;;;1.40;;
70102;SDS011;57470;50.034;15.256;2022-09-28T12:12:33;4.95;;;1.70;;
70102;SDS011;57470;50.034;15.256;2022-09-28T12:15:24;4.17;;;1.50;;
70102;SDS011;57470;50.034;15.256;2022-09-28T12:18:25;4.05;;;1.17;;
70102;SDS011;57470;50.034;15.256;2022-09-28T12:20:48;4.65;;;1.13;;
70102;SDS011;57470;50.034;15.256;2022-09-28T12:25:53;3.22;;;0.82;;
70102;SDS011;57470;50.034;15.256;2022-09-28T12:28:33;2.70;;;0.80;;
70102;SDS011;57470;50.034;15.256;2022-09-28T12:31:12;3.88;;;0.90;;
70102;SDS011;57470;50.034;15.256;2022-09-28T12:33:44;3.40;;;0.60;;
70102;SDS011;57470;50.034;15.256;2022-09-28T12:52:35;4.07;;;0.77;;
70102;SDS011;57470;50.034;15.256;2022-09-28T12:58:09;3.50;;;1.00;;
70102;SDS011;57470;50.034;15.256;2022-09-28T13:00:46;4.35;;;1.35;;
70102;SDS011;57470;50.034;15.256;2022-09-28T13:06:21;5.18;;;1.40;;
70102;SDS011;57470;50.034;15.256;2022-09-28T13:09:03;2.92;;;0.73;;
70102;SDS011;57470;50.034;15.256;2022-09-28T13:15:03;7.15;;;1.58;;
70102;SDS011;57470;50.034;15.256;2022-09-28T13:17:51;3.45;;;1.02;;
70102;SDS011;57470;50.034;15.256;2022-09-28T13:23:21;6.82;;;3.20;;
70102;SDS011;57470;50.034;15.256;2022-09-28T13:25:51;4.13;;;1.50;;
70102;SDS011;57470;50.034;15.256;2022-09-28T13:28:21;5.15;;;1.10;;
70102;SDS011;57470;50.034;15.256;2022-09-28T13:30:49;5.65;;;1.95;;
70102;SDS011;57470;50.034;15.256;2022-09-28T13:33:19;4.25;;;1.17;;
70102;SDS011;57470;50.034;15.256;2022-09-28T13:35:53;3.70;;;1.20;;
70102;SDS011;57470;50.034;15.256;2022-09-28T13:43:49;4.57;;;1.67;;
70102;SDS011;57470;50.034;15.256;2022-09-28T13:46:50;7.53;;;1.55;;
70102;SDS011;57470;50.034;15.256;2022-09-28T13:49:39;6.50;;;1.70;;
70102;SDS011;57470;50.034;15.256;2022-09-28T13:57:59;3.20;;;0.90;;
70102;SDS011;57470;50.034;15.256;2022-09-28T14:10:53;3.75;;;1.23;;
70102;SDS011;57470;50.034;15.256;2022-09-28T14:16:18;3.77;;;1.27;;
70102;SDS011;57470;50.034;15.256;2022-09-28T14:18:49;3.17;;;0.85;;
70102;SDS011;57470;50.034;15.256;2022-09-28T14:24:22;3.72;;;1.23;;
70102;SDS011;57470;50.034;15.256;2022-09-28T14:29:53;6.37;;;2.27;;
70102;SDS011;57470;50.034;15.256;2022-09-28T14:35:22;7.90;;;2.20;;
70102;SDS011;57470;50.034;15.256;2022-09-28T14:37:50;3.63;;;1.02;;
70102;SDS011;57470;50.034;15.256;2022-09-28T14:46:25;3.70;;;1.42;;
70102;SDS011;57470;50.034;15.256;2022-09-28T14:48:54;3.17;;;0.80;;
70102;SDS011;57470;50.034;15.256;2022-09-28T14:59:06;4.38;;;1.38;;
70102;SDS011;57470;50.034;15.256;2022-09-28T15:01:38;4.65;;;1.60;;
70102;SDS011;57470;50.034;15.256;2022-09-28T15:04:05;4.90;;;1.42;;
70102;SDS011;57470;50.034;15.256;2022-09-28T15:06:44;8.67;;;2.83;;
70102;SDS011;57470;50.034;15.256;2022-09-28T15:09:26;12.32;;;5.22;;
70102;SDS011;57470;50.034;15.256;2022-09-28T15:11:59;13.35;;;4.68;;
70102;SDS011;57470;50.034;15.256;2022-09-28T15:14:25;14.27;;;3.88;;
70102;SDS011;57470;50.034;15.256;2022-09-28T15:16:56;15.85;;;5.63;;
70102;SDS011;57470;50.034;15.256;2022-09-28T15:19:35;20.63;;;7.33;;
70102;SDS011;57470;50.034;15.256;2022-09-28T15:25:49;23.67;;;8.15;;
70102;SDS011;57470;50.034;15.256;2022-09-28T15:28:17;10.63;;;4.57;;
70102;SDS011;57470;50.034;15.256;2022-09-28T15:30:46;14.45;;;4.10;;
70102;SDS011;57470;50.034;15.256;2022-09-28T15:33:31;8.67;;;3.60;;
70102;SDS011;57470;50.034;15.256;2022-09-28T15:36:24;9.13;;;3.33;;
70102;SDS011;57470;50.034;15.256;2022-09-28T15:39:04;13.70;;;4.55;;
70102;SDS011;57470;50.034;15.256;2022-09-28T15:41:36;26.65;;;10.13;;
70102;SDS011;57470;50.034;15.256;2022-09-28T16:10:00;16.87;;;5.07;;
70102;SDS011;57470;50.034;15.256;2022-09-28T16:12:47;24.58;;;6.45;;
70102;SDS011;57470;50.034;15.256;2022-09-28T16:15:27;14.48;;;4.97;;
70102;SDS011;57470;50.034;15.256;2022-09-28T16:20:37;14.77;;;5.25;;
70102;SDS011;57470;50.034;15.256;2022-09-28T16:23:23;8.27;;;3.20;;
70102;SDS011;57470;50.034;15.256;2022-09-28T16:25:59;7.22;;;2.38;;
70102;SDS011;57470;50.034;15.256;2022-09-28T16:30:58;4.93;;;1.42;;
70102;SDS011;57470;50.034;15.256;2022-09-28T16:33:27;3.85;;;1.33;;
70102;SDS011;57470;50.034;15.256;2022-09-28T16:36:00;4.83;;;1.40;;
70102;SDS011;57470;50.034;15.256;2022-09-28T16:38:26;4.15;;;1.33;;
70102;SDS011;57470;50.034;15.256;2022-09-28T16:40:52;4.53;;;1.73;;
70102;SDS011;57470;50.034;15.256;2022-09-28T16:45:53;6.18;;;2.03;;
70102;SDS011;57470;50.034;15.256;2022-09-28T16:48:25;6.93;;;1.98;;
70102;SDS011;57470;50.034;15.256;2022-09-28T16:50:52;7.30;;;2.50;;
70102;SDS011;57470;50.034;15.256;2022-09-28T16:53:18;6.03;;;2.63;;
70102;SDS011;57470;50.034;15.256;2022-09-28T16:56:02;5.43;;;2.45;;
70102;SDS011;57470;50.034;15.256;2022-09-28T16:58:28;8.18;;;3.28;;
70102;SDS011;57470;50.034;15.256;2022-09-28T17:00:55;7.93;;;3.00;;
70102;SDS011;57470;50.034;15.256;2022-09-28T17:03:22;8.30;;;3.03;;
70102;SDS011;57470;50.034;15.256;2022-09-28T17:05:48;7.25;;;3.17;;
70102;SDS011;57470;50.034;15.256;2022-09-28T17:08:19;8.82;;;2.50;;
70102;SDS011;57470;50.034;15.256;2022-09-28T17:13:11;7.97;;;2.03;;
70102;SDS011;57470;50.034;15.256;2022-09-28T17:15:38;6.40;;;1.20;;
70102;SDS011;57470;50.034;15.256;2022-09-28T17:18:04;4.55;;;1.42;;
70102;SDS011;57470;50.034;15.256;2022-09-28T17:20:30;5.32;;;1.00;;
70102;SDS011;57470;50.034;15.256;2022-09-28T17:22:57;8.20;;;2.83;;
70102;SDS011;57470;50.034;15.256;2022-09-28T17:25:22;9.53;;;2.83;;
70102;SDS011;57470;50.034;15.256;2022-09-28T17:27:50;5.72;;;2.28;;
70102;SDS011;57470;50.034;15.256;2022-09-28T17:30:18;5.95;;;1.73;;
70102;SDS011;57470;50.034;15.256;2022-09-28T17:32:44;6.03;;;1.67;;
70102;SDS011;57470;50.034;15.256;2022-09-28T17:35:11;3.13;;;0.93;;
70102;SDS011;57470;50.034;15.256;2022-09-28T17:37:37;4.27;;;1.27;;
70102;SDS011;57470;50.034;15.256;2022-09-28T17:42:49;3.88;;;1.00;;
70102;SDS011;57470;50.034;15.256;2022-09-28T17:45:17;3.53;;;1.17;;
70102;SDS011;57470;50.034;15.256;2022-09-28T17:47:43;5.17;;;1.40;;
70102;SDS011;57470;50.034;15.256;2022-09-28T17:50:30;3.85;;;1.48;;
70102;SDS011;57470;50.034;15.256;2022-09-28T17:52:56;5.80;;;1.43;;
70102;SDS011;57470;50.034;15.256;2022-09-28T17:55:29;4.50;;;1.38;;
70102;SDS011;57470;50.034;15.256;2022-09-28T17:57:58;5.20;;;1.10;;
70102;SDS011;57470;50.034;15.256;2022-09-28T18:00:28;4.63;;;1.00;;
70102;SDS011;57470;50.034;15.256;2022-09-28T18:02:54;4.60;;;1.67;;
70102;SDS011;57470;50.034;15.256;2022-09-28T18:05:20;5.82;;;1.88;;
70102;SDS011;57470;50.034;15.256;2022-09-28T18:07:47;4.50;;;1.30;;
70102;SDS011;57470;50.034;15.256;2022-09-28T18:10:14;5.37;;;1.27;;
70102;SDS011;57470;50.034;15.256;2022-09-28T18:12:43;3.05;;;0.88;;
70102;SDS011;57470;50.034;15.256;2022-09-28T18:15:09;4.80;;;1.30;;
70102;SDS011;57470;50.034;15.256;2022-09-28T18:17:36;3.13;;;0.70;;
70102;SDS011;57470;50.034;15.256;2022-09-28T18:20:02;4.95;;;1.15;;
70102;SDS011;57470;50.034;15.256;2022-09-28T18:22:28;3.53;;;0.60;;
70102;SDS011;57470;50.034;15.256;2022-09-28T18:24:53;2.88;;;0.98;;
70102;SDS011;57470;50.034;15.256;2022-09-28T18:27:18;6.50;;;1.60;;